sensor_id;sensor_type;location;lat;lon;timestamp;pressure;altitude;pressure_sealevel;temperature;humidity
2339;BME280;1180;51.438;6.978;2023-07-20T00:01:44;100075.59;;;20.40;84.10
2339;BME280;1180;51.438;6.978;2023-07-20T00:04:11;100070.84;;;20.35;84.53
2339;BME280;1180;51.438;6.978;2023-07-20T00:06:37;100076.88;;;20.35;85.14
2339;BME280;1180;51.438;6.978;2023-07-20T00:09:09;100077.69;;;20.36;85.04
2339;BME280;1180;51.438;6.978;2023-07-20T00:11:38;100070.69;;;20.37;84.67
2339;BME280;1180;51.438;6.978;2023-07-20T00:14:07;100075.13;;;20.44;84.88
2339;BME280;1180;51.438;6.978;2023-07-20T00:16:33;100071.84;;;20.42;85.11
2339;BME280;1180;51.438;6.978;2023-07-20T00:18:59;100065.16;;;20.40;84.89
2339;BME280;1180;51.438;6.978;2023-07-20T00:21:25;100067.13;;;20.38;85.63
2339;BME280;1180;51.438;6.978;2023-07-20T00:23:51;100072.00;;;20.32;85.26
2339;BME280;1180;51.438;6.978;2023-07-20T00:26:16;100067.75;;;20.31;86.49
2339;BME280;1180;51.438;6.978;2023-07-20T00:28:43;100066.94;;;20.31;86.69
2339;BME280;1180;51.438;6.978;2023-07-20T00:31:08;100061.22;;;20.27;86.67
2339;BME280;1180;51.438;6.978;2023-07-20T00:33:34;100059.25;;;20.21;87.02
2339;BME280;1180;51.438;6.978;2023-07-20T00:36:00;100056.63;;;20.21;87.36
2339;BME280;1180;51.438;6.978;2023-07-20T00:38:26;100057.31;;;20.23;87.89
2339;BME280;1180;51.438;6.978;2023-07-20T00:40:51;100062.34;;;20.16;88.13
2339;BME280;1180;51.438;6.978;2023-07-20T00:43:18;100058.91;;;20.16;88.33
2339;BME280;1180;51.438;6.978;2023-07-20T00:45:44;100051.25;;;20.14;88.42
2339;BME280;1180;51.438;6.978;2023-07-20T00:48:10;100051.06;;;20.08;88.86
2339;BME280;1180;51.438;6.978;2023-07-20T00:50:36;100046.69;;;20.08;89.25
2339;BME280;1180;51.438;6.978;2023-07-20T00:53:04;100053.03;;;20.05;89.08
2339;BME280;1180;51.438;6.978;2023-07-20T00:55:32;100049.09;;;20.01;89.34
2339;BME280;1180;51.438;6.978;2023-07-20T00:57:59;100055.13;;;20.02;89.78
2339;BME280;1180;51.438;6.978;2023-07-20T01:00:25;100059.34;;;20.03;89.43
2339;BME280;1180;51.438;6.978;2023-07-20T01:02:51;100064.88;;;20.00;88.78
2339;BME280;1180;51.438;6.978;2023-07-20T01:05:17;100058.03;;;19.99;88.79
2339;BME280;1180;51.438;6.978;2023-07-20T01:08:01;100059.53;;;20.01;89.51
2339;BME280;1180;51.438;6.978;2023-07-20T01:10:54;100066.38;;;20.02;89.37
2339;BME280;1180;51.438;6.978;2023-07-20T01:13:23;100062.13;;;20.01;89.47
2339;BME280;1180;51.438;6.978;2023-07-20T01:15:56;100058.22;;;20.05;89.58
2339;BME280;1180;51.438;6.978;2023-07-20T01:18:22;100051.06;;;20.08;89.57
2339;BME280;1180;51.438;6.978;2023-07-20T01:20:48;100047.81;;;20.05;89.72
2339;BME280;1180;51.438;6.978;2023-07-20T01:23:27;100051.72;;;20.01;89.99
2339;BME280;1180;51.438;6.978;2023-07-20T01:26:11;100052.81;;;19.99;90.56
2339;BME280;1180;51.438;6.978;2023-07-20T01:31:33;100055.94;;;19.94;91.10
2339;BME280;1180;51.438;6.978;2023-07-20T01:34:02;100063.75;;;19.94;90.88
2339;BME280;1180;51.438;6.978;2023-07-20T01:36:34;100051.06;;;19.99;90.86
2339;BME280;1180;51.438;6.978;2023-07-20T01:39:01;100049.75;;;19.95;90.53
2339;BME280;1180;51.438;6.978;2023-07-20T01:41:27;100052.34;;;19.95;89.79
2339;BME280;1180;51.438;6.978;2023-07-20T01:43:57;100051.03;;;19.91;90.04
2339;BME280;1180;51.438;6.978;2023-07-20T01:46:24;100055.56;;;19.89;90.20
2339;BME280;1180;51.438;6.978;2023-07-20T01:48:50;100051.28;;;19.88;90.16
2339;BME280;1180;51.438;6.978;2023-07-20T01:51:16;100051.69;;;19.93;89.73
2339;BME280;1180;51.438;6.978;2023-07-20T01:53:43;100053.25;;;19.86;89.70
2339;BME280;1180;51.438;6.978;2023-07-20T01:56:09;100047.75;;;19.89;90.89
2339;BME280;1180;51.438;6.978;2023-07-20T01:58:37;100051.28;;;19.88;92.79
2339;BME280;1180;51.438;6.978;2023-07-20T02:01:03;100046.41;;;19.85;93.70
2339;BME280;1180;51.438;6.978;2023-07-20T02:03:29;100036.63;;;19.87;94.37
2339;BME280;1180;51.438;6.978;2023-07-20T02:05:55;100026.06;;;19.80;94.39
2339;BME280;1180;51.438;6.978;2023-07-20T02:08:22;100032.25;;;19.79;95.60
2339;BME280;1180;51.438;6.978;2023-07-20T02:10:49;100035.00;;;19.77;95.91
2339;BME280;1180;51.438;6.978;2023-07-20T02:13:15;100039.84;;;19.72;96.48
2339;BME280;1180;51.438;6.978;2023-07-20T02:15:41;100041.78;;;19.70;96.87
2339;BME280;1180;51.438;6.978;2023-07-20T02:18:12;100039.97;;;19.62;98.53
2339;BME280;1180;51.438;6.978;2023-07-20T02:20:38;100035.25;;;19.58;98.47
2339;BME280;1180;51.438;6.978;2023-07-20T02:23:10;100034.72;;;19.54;98.78
2339;BME280;1180;51.438;6.978;2023-07-20T02:25:36;100044.84;;;19.66;98.71
2339;BME280;1180;51.438;6.978;2023-07-20T02:28:04;100049.06;;;19.58;99.23
2339;BME280;1180;51.438;6.978;2023-07-20T02:30:29;100046.31;;;19.60;99.67
2339;BME280;1180;51.438;6.978;2023-07-20T02:32:55;100052.50;;;19.59;99.02
2339;BME280;1180;51.438;6.978;2023-07-20T02:35:24;100057.31;;;19.54;98.39
2339;BME280;1180;51.438;6.978;2023-07-20T02:37:49;100052.72;;;19.47;99.03
2339;BME280;1180;51.438;6.978;2023-07-20T02:40:15;100052.06;;;19.45;100.00
2339;BME280;1180;51.438;6.978;2023-07-20T02:42:41;100057.28;;;19.45;100.00
2339;BME280;1180;51.438;6.978;2023-07-20T02:45:07;100060.22;;;19.51;100.00
2339;BME280;1180;51.438;6.978;2023-07-20T02:47:33;100073.56;;;19.47;100.00
2339;BME280;1180;51.438;6.978;2023-07-20T02:49:59;100062.28;;;19.39;100.00
2339;BME280;1180;51.438;6.978;2023-07-20T02:52:25;100060.66;;;19.38;100.00
2339;BME280;1180;51.438;6.978;2023-07-20T02:54:51;100069.13;;;19.40;100.00
2339;BME280;1180;51.438;6.978;2023-07-20T02:57:17;100066.06;;;19.44;100.00
2339;BME280;1180;51.438;6.978;2023-07-20T02:59:43;100059.22;;;19.43;100.00
2339;BME280;1180;51.438;6.978;2023-07-20T03:02:09;100070.28;;;19.45;100.00
2339;BME280;1180;51.438;6.978;2023-07-20T03:04:35;100059.56;;;19.48;100.00
2339;BME280;1180;51.438;6.978;2023-07-20T03:07:05;100061.19;;;19.49;100.00
2339;BME280;1180;51.438;6.978;2023-07-20T03:09:32;100064.78;;;19.48;100.00
2339;BME280;1180;51.438;6.978;2023-07-20T03:11:58;100064.94;;;19.47;100.00
2339;BME280;1180;51.438;6.978;2023-07-20T03:14:24;100071.25;;;19.44;100.00
2339;BME280;1180;51.438;6.978;2023-07-20T03:16:50;100072.41;;;19.42;100.00
2339;BME280;1180;51.438;6.978;2023-07-20T03:19:16;100067.03;;;19.43;100.00
2339;BME280;1180;51.438;6.978;2023-07-20T03:21:42;100076.25;;;19.38;100.00
2339;BME280;1180;51.438;6.978;2023-07-20T03:24:08;100082.94;;;19.40;100.00
2339;BME280;1180;51.438;6.978;2023-07-20T03:26:35;100078.06;;;19.37;100.00
2339;BME280;1180;51.438;6.978;2023-07-20T03:29:03;100076.38;;;19.28;100.00
2339;BME280;1180;51.438;6.978;2023-07-20T03:31:30;100074.75;;;19.27;100.00
2339;BME280;1180;51.438;6.978;2023-07-20T03:33:56;100073.16;;;19.34;100.00
2339;BME280;1180;51.438;6.978;2023-07-20T03:36:22;100080.13;;;19.33;100.00
2339;BME280;1180;51.438;6.978;2023-07-20T03:38:48;100072.94;;;19.27;100.00
2339;BME280;1180;51.438;6.978;2023-07-20T03:41:13;100075.72;;;19.26;100.00
2339;BME280;1180;51.438;6.978;2023-07-20T03:43:41;100083.81;;;19.23;100.00
2339;BME280;1180;51.438;6.978;2023-07-20T03:46:07;100081.28;;;19.31;100.00
2339;BME280;1180;51.438;6.978;2023-07-20T03:48:33;100085.34;;;19.33;100.00
2339;BME280;1180;51.438;6.978;2023-07-20T03:50:59;100084.53;;;19.33;100.00
2339;BME280;1180;51.438;6.978;2023-07-20T03:53:26;100088.09;;;19.32;100.00
2339;BME280;1180;51.438;6.978;2023-07-20T03:55:52;100083.56;;;19.34;100.00
2339;BME280;1180;51.438;6.978;2023-07-20T03:58:19;100089.44;;;19.36;100.00
2339;BME280;1180;51.438;6.978;2023-07-20T04:00:49;100087.13;;;19.33;100.00
2339;BME280;1180;51.438;6.978;2023-07-20T04:03:19;100088.59;;;19.36;100.00
2339;BME280;1180;51.438;6.978;2023-07-20T04:05:45;100098.16;;;19.27;100.00
2339;BME280;1180;51.438;6.978;2023-07-20T04:08:11;100098.06;;;19.18;100.00
2339;BME280;1180;51.438;6.978;2023-07-20T04:10:38;100095.63;;;19.17;100.00
2339;BME280;1180;51.438;6.978;2023-07-20T04:13:04;100096.06;;;19.30;100.00
2339;BME280;1180;51.438;6.978;2023-07-20T04:15:31;100096.28;;;19.37;100.00
2339;BME280;1180;51.438;6.978;2023-07-20T04:17:56;100101.72;;;19.26;100.00
2339;BME280;1180;51.438;6.978;2023-07-20T04:20:25;100111.31;;;19.07;100.00
2339;BME280;1180;51.438;6.978;2023-07-20T04:22:51;100104.91;;;18.83;100.00
2339;BME280;1180;51.438;6.978;2023-07-20T04:25:18;100104.84;;;18.75;100.00
2339;BME280;1180;51.438;6.978;2023-07-20T04:27:44;100108.03;;;18.69;100.00
2339;BME280;1180;51.438;6.978;2023-07-20T04:30:11;100107.75;;;18.90;100.00
2339;BME280;1180;51.438;6.978;2023-07-20T04:32:38;100107.75;;;18.90;100.00
2339;BME280;1180;51.438;6.978;2023-07-20T04:35:18;100110.56;;;18.97;100.00
2339;BME280;1180;51.438;6.978;2023-07-20T04:37:44;100114.53;;;19.01;100.00
2339;BME280;1180;51.438;6.978;2023-07-20T04:40:15;100114.50;;;19.19;100.00
2339;BME280;1180;51.438;6.978;2023-07-20T04:42:41;100113.03;;;19.16;100.00
2339;BME280;1180;51.438;6.978;2023-07-20T04:45:07;100119.66;;;19.11;100.00
2339;BME280;1180;51.438;6.978;2023-07-20T04:47:33;100113.97;;;18.97;100.00
2339;BME280;1180;51.438;6.978;2023-07-20T04:49:59;100120.47;;;19.11;100.00
2339;BME280;1180;51.438;6.978;2023-07-20T04:52:25;100117.34;;;19.26;100.00
2339;BME280;1180;51.438;6.978;2023-07-20T04:54:51;100121.75;;;19.33;100.00
2339;BME280;1180;51.438;6.978;2023-07-20T04:57:16;100121.72;;;19.25;100.00
2339;BME280;1180;51.438;6.978;2023-07-20T04:59:42;100121.94;;;19.32;100.00
2339;BME280;1180;51.438;6.978;2023-07-20T05:02:08;100123.69;;;19.31;100.00
2339;BME280;1180;51.438;6.978;2023-07-20T05:04:34;100129.75;;;19.14;100.00
2339;BME280;1180;51.438;6.978;2023-07-20T05:07:00;100134.78;;;19.15;100.00
2339;BME280;1180;51.438;6.978;2023-07-20T05:09:27;100133.91;;;19.25;100.00
2339;BME280;1180;51.438;6.978;2023-07-20T05:11:53;100131.31;;;19.25;100.00
2339;BME280;1180;51.438;6.978;2023-07-20T05:14:18;100135.69;;;19.06;100.00
2339;BME280;1180;51.438;6.978;2023-07-20T05:16:44;100138.13;;;18.89;100.00
2339;BME280;1180;51.438;6.978;2023-07-20T05:19:10;100138.72;;;18.83;100.00
2339;BME280;1180;51.438;6.978;2023-07-20T05:21:36;100132.88;;;18.53;100.00
2339;BME280;1180;51.438;6.978;2023-07-20T05:24:02;100135.28;;;18.65;100.00
2339;BME280;1180;51.438;6.978;2023-07-20T05:26:27;100140.94;;;18.78;100.00
2339;BME280;1180;51.438;6.978;2023-07-20T05:28:53;100133.81;;;18.80;100.00
2339;BME280;1180;51.438;6.978;2023-07-20T05:31:20;100140.84;;;18.70;100.00
2339;BME280;1180;51.438;6.978;2023-07-20T05:33:45;100135.63;;;18.52;100.00
2339;BME280;1180;51.438;6.978;2023-07-20T05:36:11;100135.41;;;18.45;100.00
2339;BME280;1180;51.438;6.978;2023-07-20T05:38:37;100138.19;;;18.61;100.00
2339;BME280;1180;51.438;6.978;2023-07-20T05:41:03;100143.00;;;18.56;100.00
2339;BME280;1180;51.438;6.978;2023-07-20T05:43:29;100144.78;;;18.56;100.00
2339;BME280;1180;51.438;6.978;2023-07-20T05:45:55;100142.19;;;18.56;100.00
2339;BME280;1180;51.438;6.978;2023-07-20T05:48:21;100151.84;;;18.64;100.00
2339;BME280;1180;51.438;6.978;2023-07-20T05:50:46;100156.19;;;18.45;100.00
2339;BME280;1180;51.438;6.978;2023-07-20T05:53:12;100152.66;;;18.36;100.00
2339;BME280;1180;51.438;6.978;2023-07-20T05:55:38;100156.41;;;18.24;100.00
2339;BME280;1180;51.438;6.978;2023-07-20T05:58:05;100150.06;;;18.36;100.00
2339;BME280;1180;51.438;6.978;2023-07-20T06:00:31;100155.81;;;18.02;100.00
2339;BME280;1180;51.438;6.978;2023-07-20T06:02:57;100162.78;;;17.92;100.00
2339;BME280;1180;51.438;6.978;2023-07-20T06:05:23;100159.03;;;17.56;100.00
2339;BME280;1180;51.438;6.978;2023-07-20T06:07:49;100163.00;;;17.60;100.00
2339;BME280;1180;51.438;6.978;2023-07-20T06:10:15;100164.59;;;17.81;100.00
2339;BME280;1180;51.438;6.978;2023-07-20T06:12:41;100171.31;;;17.74;100.00
2339;BME280;1180;51.438;6.978;2023-07-20T06:15:27;100171.75;;;18.17;100.00
2339;BME280;1180;51.438;6.978;2023-07-20T06:17:54;100172.59;;;17.98;100.00
2339;BME280;1180;51.438;6.978;2023-07-20T06:20:20;100180.13;;;18.01;100.00
2339;BME280;1180;51.438;6.978;2023-07-20T06:22:46;100186.69;;;17.95;100.00
2339;BME280;1180;51.438;6.978;2023-07-20T06:25:12;100182.53;;;18.22;100.00
2339;BME280;1180;51.438;6.978;2023-07-20T06:27:38;100190.66;;;18.37;100.00
2339;BME280;1180;51.438;6.978;2023-07-20T06:30:05;100178.13;;;18.60;100.00
2339;BME280;1180;51.438;6.978;2023-07-20T06:32:31;100191.59;;;18.74;100.00
2339;BME280;1180;51.438;6.978;2023-07-20T06:34:57;100192.94;;;18.96;100.00
2339;BME280;1180;51.438;6.978;2023-07-20T06:37:23;100196.53;;;18.39;98.94
2339;BME280;1180;51.438;6.978;2023-07-20T06:39:49;100190.13;;;18.06;100.00
2339;BME280;1180;51.438;6.978;2023-07-20T06:42:15;100187.75;;;18.50;100.00
2339;BME280;1180;51.438;6.978;2023-07-20T06:44:41;100191.31;;;18.95;98.53
2339;BME280;1180;51.438;6.978;2023-07-20T06:47:07;100192.03;;;18.87;96.69
2339;BME280;1180;51.438;6.978;2023-07-20T06:49:33;100188.00;;;18.57;97.69
2339;BME280;1180;51.438;6.978;2023-07-20T06:51:58;100185.31;;;18.48;99.00
2339;BME280;1180;51.438;6.978;2023-07-20T06:54:24;100183.50;;;18.49;97.90
2339;BME280;1180;51.438;6.978;2023-07-20T06:56:50;100183.53;;;18.39;97.41
2339;BME280;1180;51.438;6.978;2023-07-20T06:59:16;100183.03;;;18.36;98.57
2339;BME280;1180;51.438;6.978;2023-07-20T07:01:42;100186.69;;;18.71;97.62
2339;BME280;1180;51.438;6.978;2023-07-20T07:04:08;100187.53;;;18.89;96.04
2339;BME280;1180;51.438;6.978;2023-07-20T07:06:33;100193.22;;;19.03;94.91
2339;BME280;1180;51.438;6.978;2023-07-20T07:09:00;100198.06;;;19.34;94.83
2339;BME280;1180;51.438;6.978;2023-07-20T07:11:25;100197.16;;;19.70;93.63
2339;BME280;1180;51.438;6.978;2023-07-20T07:13:52;100203.13;;;19.80;90.30
2339;BME280;1180;51.438;6.978;2023-07-20T07:16:21;100202.88;;;19.91;90.37
2339;BME280;1180;51.438;6.978;2023-07-20T07:18:49;100203.03;;;20.16;89.02
2339;BME280;1180;51.438;6.978;2023-07-20T07:21:15;100197.56;;;20.36;86.85
2339;BME280;1180;51.438;6.978;2023-07-20T07:23:41;100195.81;;;20.45;86.02
2339;BME280;1180;51.438;6.978;2023-07-20T07:26:07;100207.16;;;20.01;83.03
2339;BME280;1180;51.438;6.978;2023-07-20T07:28:33;100204.19;;;19.96;84.96
2339;BME280;1180;51.438;6.978;2023-07-20T07:30:58;100206.00;;;19.95;85.67
2339;BME280;1180;51.438;6.978;2023-07-20T07:33:24;100211.09;;;19.60;83.14
2339;BME280;1180;51.438;6.978;2023-07-20T07:35:53;100206.97;;;19.13;86.57
2339;BME280;1180;51.438;6.978;2023-07-20T07:38:19;100210.69;;;19.29;86.68
2339;BME280;1180;51.438;6.978;2023-07-20T07:40:46;100213.09;;;19.67;84.89
2339;BME280;1180;51.438;6.978;2023-07-20T07:43:12;100213.34;;;19.37;86.28
2339;BME280;1180;51.438;6.978;2023-07-20T07:45:39;100219.28;;;19.66;87.91
2339;BME280;1180;51.438;6.978;2023-07-20T07:48:06;100220.09;;;19.66;86.10
2339;BME280;1180;51.438;6.978;2023-07-20T07:50:33;100216.47;;;19.59;83.77
2339;BME280;1180;51.438;6.978;2023-07-20T07:52:59;100225.09;;;19.41;85.77
2339;BME280;1180;51.438;6.978;2023-07-20T07:55:25;100226.19;;;19.39;84.90
2339;BME280;1180;51.438;6.978;2023-07-20T07:57:54;100227.28;;;19.28;85.18
2339;BME280;1180;51.438;6.978;2023-07-20T08:00:20;100233.28;;;19.46;86.17
2339;BME280;1180;51.438;6.978;2023-07-20T08:02:46;100235.25;;;19.89;82.71
2339;BME280;1180;51.438;6.978;2023-07-20T08:05:14;100237.97;;;20.05;81.06
2339;BME280;1180;51.438;6.978;2023-07-20T08:07:39;100238.66;;;20.42;79.09
2339;BME280;1180;51.438;6.978;2023-07-20T08:10:06;100236.13;;;20.67;77.96
2339;BME280;1180;51.438;6.978;2023-07-20T08:12:32;100226.88;;;20.73;75.33
2339;BME280;1180;51.438;6.978;2023-07-20T08:14:57;100231.41;;;20.62;78.42
2339;BME280;1180;51.438;6.978;2023-07-20T08:17:24;100244.19;;;20.82;78.09
2339;BME280;1180;51.438;6.978;2023-07-20T08:19:50;100242.63;;;21.06;78.12
2339;BME280;1180;51.438;6.978;2023-07-20T08:22:15;100241.13;;;20.95;77.96
2339;BME280;1180;51.438;6.978;2023-07-20T08:24:42;100243.03;;;20.76;78.07
2339;BME280;1180;51.438;6.978;2023-07-20T08:27:09;100246.16;;;20.80;79.22
2339;BME280;1180;51.438;6.978;2023-07-20T08:29:36;100242.25;;;20.41;80.37
2339;BME280;1180;51.438;6.978;2023-07-20T08:32:03;100242.91;;;20.17;79.04
2339;BME280;1180;51.438;6.978;2023-07-20T08:34:30;100241.63;;;19.95;80.58
2339;BME280;1180;51.438;6.978;2023-07-20T08:36:56;100250.50;;;19.66;80.14
2339;BME280;1180;51.438;6.978;2023-07-20T08:39:22;100245.88;;;19.77;81.23
2339;BME280;1180;51.438;6.978;2023-07-20T08:41:49;100243.13;;;19.97;79.84
2339;BME280;1180;51.438;6.978;2023-07-20T08:44:15;100247.91;;;20.37;79.45
2339;BME280;1180;51.438;6.978;2023-07-20T08:46:42;100246.06;;;20.29;77.75
2339;BME280;1180;51.438;6.978;2023-07-20T08:49:08;100249.75;;;20.18;76.52
2339;BME280;1180;51.438;6.978;2023-07-20T08:51:37;100253.22;;;20.27;78.64
2339;BME280;1180;51.438;6.978;2023-07-20T08:54:03;100248.72;;;20.37;76.55
2339;BME280;1180;51.438;6.978;2023-07-20T08:56:31;100252.13;;;20.29;74.07
2339;BME280;1180;51.438;6.978;2023-07-20T08:58:59;100261.09;;;20.09;75.14
2339;BME280;1180;51.438;6.978;2023-07-20T09:01:27;100259.19;;;20.19;73.07
2339;BME280;1180;51.438;6.978;2023-07-20T09:03:54;100250.66;;;20.35;69.85
2339;BME280;1180;51.438;6.978;2023-07-20T09:06:21;100258.38;;;20.45;71.15
2339;BME280;1180;51.438;6.978;2023-07-20T09:08:47;100248.06;;;20.70;71.92
2339;BME280;1180;51.438;6.978;2023-07-20T09:11:12;100250.94;;;21.01;68.95
2339;BME280;1180;51.438;6.978;2023-07-20T09:13:41;100243.81;;;21.12;66.92
2339;BME280;1180;51.438;6.978;2023-07-20T09:16:07;100246.09;;;21.31;68.63
2339;BME280;1180;51.438;6.978;2023-07-20T09:18:33;100250.16;;;21.17;67.38
2339;BME280;1180;51.438;6.978;2023-07-20T09:21:03;100245.56;;;21.11;68.72
2339;BME280;1180;51.438;6.978;2023-07-20T09:23:35;100243.16;;;21.59;68.35
2339;BME280;1180;51.438;6.978;2023-07-20T09:26:10;100249.53;;;21.40;65.51
2339;BME280;1180;51.438;6.978;2023-07-20T09:28:56;100253.59;;;21.26;64.54
2339;BME280;1180;51.438;6.978;2023-07-20T09:31:23;100255.59;;;21.41;65.38
2339;BME280;1180;51.438;6.978;2023-07-20T09:33:52;100247.56;;;21.50;64.92
2339;BME280;1180;51.438;6.978;2023-07-20T09:36:18;100245.28;;;21.39;62.06
2339;BME280;1180;51.438;6.978;2023-07-20T09:38:44;100246.25;;;21.46;62.12
2339;BME280;1180;51.438;6.978;2023-07-20T09:41:14;100239.44;;;21.78;61.93
2339;BME280;1180;51.438;6.978;2023-07-20T09:43:41;100244.47;;;21.97;61.47
2339;BME280;1180;51.438;6.978;2023-07-20T09:46:07;100241.31;;;22.26;60.99
2339;BME280;1180;51.438;6.978;2023-07-20T09:48:33;100242.19;;;22.58;60.71
2339;BME280;1180;51.438;6.978;2023-07-20T09:50:59;100233.47;;;22.26;60.93
2339;BME280;1180;51.438;6.978;2023-07-20T09:53:26;100238.56;;;22.03;61.50
2339;BME280;1180;51.438;6.978;2023-07-20T09:55:54;100238.72;;;22.10;61.48
2339;BME280;1180;51.438;6.978;2023-07-20T09:58:21;100244.66;;;21.70;63.40
2339;BME280;1180;51.438;6.978;2023-07-20T10:00:48;100243.84;;;21.45;63.83
2339;BME280;1180;51.438;6.978;2023-07-20T10:03:28;100250.59;;;21.04;66.41
2339;BME280;1180;51.438;6.978;2023-07-20T10:05:59;100241.66;;;21.07;67.68
2339;BME280;1180;51.438;6.978;2023-07-20T10:08:26;100238.25;;;21.31;64.85
2339;BME280;1180;51.438;6.978;2023-07-20T10:10:54;100240.41;;;21.36;64.94
2339;BME280;1180;51.438;6.978;2023-07-20T10:13:26;100239.28;;;21.80;63.37
2339;BME280;1180;51.438;6.978;2023-07-20T10:16:13;100236.13;;;22.01;63.23
2339;BME280;1180;51.438;6.978;2023-07-20T10:18:55;100231.25;;;21.48;64.40
2339;BME280;1180;51.438;6.978;2023-07-20T10:21:25;100234.50;;;21.17;63.52
2339;BME280;1180;51.438;6.978;2023-07-20T10:23:51;100237.59;;;21.21;63.73
2339;BME280;1180;51.438;6.978;2023-07-20T10:26:17;100238.44;;;21.46;62.06
2339;BME280;1180;51.438;6.978;2023-07-20T10:28:43;100240.56;;;21.59;60.68
2339;BME280;1180;51.438;6.978;2023-07-20T10:31:11;100232.53;;;22.02;61.26
2339;BME280;1180;51.438;6.978;2023-07-20T10:33:38;100223.09;;;22.49;60.71
2339;BME280;1180;51.438;6.978;2023-07-20T10:36:05;100226.84;;;22.55;57.89
2339;BME280;1180;51.438;6.978;2023-07-20T10:39:02;100238.38;;;22.21;58.43
2339;BME280;1180;51.438;6.978;2023-07-20T10:41:34;100225.56;;;22.43;59.58
2339;BME280;1180;51.438;6.978;2023-07-20T10:44:05;100220.94;;;22.61;59.40
2339;BME280;1180;51.438;6.978;2023-07-20T10:49:06;100216.06;;;21.93;58.57
2339;BME280;1180;51.438;6.978;2023-07-20T10:51:43;100221.13;;;21.95;59.21
2339;BME280;1180;51.438;6.978;2023-07-20T10:56:56;100216.38;;;21.99;56.45
2339;BME280;1180;51.438;6.978;2023-07-20T11:01:59;100211.22;;;22.30;53.72
2339;BME280;1180;51.438;6.978;2023-07-20T11:04:41;100209.28;;;22.64;52.38
2339;BME280;1180;51.438;6.978;2023-07-20T11:07:08;100208.84;;;22.60;52.90
2339;BME280;1180;51.438;6.978;2023-07-20T11:09:34;100204.00;;;23.04;52.96
2339;BME280;1180;51.438;6.978;2023-07-20T11:12:14;100198.06;;;23.33;52.37
2339;BME280;1180;51.438;6.978;2023-07-20T11:14:54;100198.84;;;23.57;53.12
2339;BME280;1180;51.438;6.978;2023-07-20T11:17:20;100197.34;;;23.16;53.24
2339;BME280;1180;51.438;6.978;2023-07-20T11:19:48;100192.38;;;23.06;54.47
2339;BME280;1180;51.438;6.978;2023-07-20T11:22:19;100196.34;;;23.26;53.27
2339;BME280;1180;51.438;6.978;2023-07-20T11:24:46;100197.25;;;23.10;52.72
2339;BME280;1180;51.438;6.978;2023-07-20T11:27:11;100191.78;;;23.19;53.71
2339;BME280;1180;51.438;6.978;2023-07-20T11:29:37;100185.69;;;23.04;52.76
2339;BME280;1180;51.438;6.978;2023-07-20T11:32:03;100198.75;;;23.50;53.01
2339;BME280;1180;51.438;6.978;2023-07-20T11:34:31;100187.16;;;23.83;51.79
2339;BME280;1180;51.438;6.978;2023-07-20T11:36:57;100189.81;;;24.13;50.06
2339;BME280;1180;51.438;6.978;2023-07-20T11:39:23;100188.34;;;24.11;49.52
2339;BME280;1180;51.438;6.978;2023-07-20T11:41:53;100194.69;;;24.01;50.65
2339;BME280;1180;51.438;6.978;2023-07-20T11:44:25;100186.44;;;24.19;47.96
2339;BME280;1180;51.438;6.978;2023-07-20T11:47:03;100189.31;;;24.40;49.04
2339;BME280;1180;51.438;6.978;2023-07-20T11:49:29;100187.34;;;24.12;48.17
2339;BME280;1180;51.438;6.978;2023-07-20T11:51:56;100188.88;;;23.91;47.05
2339;BME280;1180;51.438;6.978;2023-07-20T11:54:23;100188.09;;;24.05;48.15
2339;BME280;1180;51.438;6.978;2023-07-20T11:56:54;100185.06;;;24.38;45.65
2339;BME280;1180;51.438;6.978;2023-07-20T11:59:21;100170.84;;;24.48;45.78
2339;BME280;1180;51.438;6.978;2023-07-20T12:01:47;100174.16;;;24.57;46.20
2339;BME280;1180;51.438;6.978;2023-07-20T12:04:13;100164.44;;;24.72;45.76
2339;BME280;1180;51.438;6.978;2023-07-20T12:06:39;100177.09;;;24.32;45.96
2339;BME280;1180;51.438;6.978;2023-07-20T12:09:05;100164.34;;;24.44;47.18
2339;BME280;1180;51.438;6.978;2023-07-20T12:11:32;100161.72;;;24.44;47.45
2339;BME280;1180;51.438;6.978;2023-07-20T12:13:58;100166.00;;;24.15;47.53
2339;BME280;1180;51.438;6.978;2023-07-20T12:16:27;100172.97;;;24.07;48.84
2339;BME280;1180;51.438;6.978;2023-07-20T12:19:07;100163.44;;;24.36;49.19
2339;BME280;1180;51.438;6.978;2023-07-20T12:21:35;100165.34;;;24.28;47.39
2339;BME280;1180;51.438;6.978;2023-07-20T12:24:04;100162.44;;;24.37;48.36
2339;BME280;1180;51.438;6.978;2023-07-20T12:26:31;100159.19;;;24.72;46.89
2339;BME280;1180;51.438;6.978;2023-07-20T12:28:57;100165.44;;;24.86;45.44
2339;BME280;1180;51.438;6.978;2023-07-20T12:31:24;100158.97;;;24.52;46.16
2339;BME280;1180;51.438;6.978;2023-07-20T12:33:51;100155.28;;;24.46;45.28
2339;BME280;1180;51.438;6.978;2023-07-20T12:36:17;100153.75;;;24.74;44.82
2339;BME280;1180;51.438;6.978;2023-07-20T12:38:43;100153.50;;;24.69;45.33
2339;BME280;1180;51.438;6.978;2023-07-20T12:41:11;100160.53;;;24.68;45.02
2339;BME280;1180;51.438;6.978;2023-07-20T12:43:44;100156.34;;;24.52;44.27
2339;BME280;1180;51.438;6.978;2023-07-20T12:46:11;100152.75;;;24.53;44.93
2339;BME280;1180;51.438;6.978;2023-07-20T12:48:37;100155.50;;;24.66;46.44
2339;BME280;1180;51.438;6.978;2023-07-20T12:51:05;100157.88;;;24.61;47.20
2339;BME280;1180;51.438;6.978;2023-07-20T12:53:31;100157.91;;;24.46;45.71
2339;BME280;1180;51.438;6.978;2023-07-20T12:55:58;100148.84;;;24.49;46.41
2339;BME280;1180;51.438;6.978;2023-07-20T12:58:23;100158.59;;;23.88;46.35
2339;BME280;1180;51.438;6.978;2023-07-20T13:00:49;100151.38;;;24.20;46.63
2339;BME280;1180;51.438;6.978;2023-07-20T13:03:15;100149.31;;;24.52;46.68
2339;BME280;1180;51.438;6.978;2023-07-20T13:05:41;100147.59;;;24.45;44.84
2339;BME280;1180;51.438;6.978;2023-07-20T13:08:07;100156.16;;;24.17;46.09
2339;BME280;1180;51.438;6.978;2023-07-20T13:10:33;100152.63;;;24.09;45.14
2339;BME280;1180;51.438;6.978;2023-07-20T13:13:00;100143.31;;;24.37;45.08
2339;BME280;1180;51.438;6.978;2023-07-20T13:15:30;100139.31;;;24.63;44.10
2339;BME280;1180;51.438;6.978;2023-07-20T13:17:58;100141.75;;;24.64;44.49
2339;BME280;1180;51.438;6.978;2023-07-20T13:20:25;100145.00;;;24.66;44.36